Time;durP1;ratioP1;P1;durP2;ratioP2;P2;SDS_P1;SDS_P2;PMS_P1;PMS_P2;Temp;Humidity;BMP_temperature;BMP_pressure;BME280_temperature;BME280_humidity;BME280_pressure;Samples;Min_cycle;Max_cycle;Signal;HPM_P1;HPM_P2
2021/01/25 00:02:05;;;;;;;4.07;3.40;;;2.30;99.90;;;;;;5036843;28;20195;-48
2021/01/25 00:04:31;;;;;;;3.73;3.00;;;2.30;99.90;;;;;;5035160;28;20183;-50
2021/01/25 00:06:56;;;;;;;3.30;3.00;;;2.40;99.90;;;;;;5036954;28;20186;-47
2021/01/25 00:09:22;;;;;;;3.87;3.10;;;2.20;99.90;;;;;;5031951;28;20212;-47
2021/01/25 00:11:47;;;;;;;3.90;3.23;;;2.20;99.90;;;;;;5016701;28;20190;-49
2021/01/25 00:14:13;;;;;;;4.33;3.03;;;2.00;99.90;;;;;;5019231;28;20197;-51
2021/01/25 00:16:38;;;;;;;3.67;2.57;;;2.00;99.90;;;;;;5036890;28;20255;-47
2021/01/25 00:19:04;;;;;;;3.10;2.80;;;2.00;99.90;;;;;;5035783;28;20200;-50
2021/01/25 00:21:29;;;;;;;3.23;2.93;;;1.90;99.90;;;;;;5017151;28;20660;-56
2021/01/25 00:23:55;;;;;;;2.93;2.63;;;1.80;99.90;;;;;;5016302;28;20173;-47
2021/01/25 00:26:20;;;;;;;4.90;3.23;;;1.70;99.90;;;;;;5034780;28;20187;-47
2021/01/25 00:28:46;;;;;;;3.20;2.83;;;1.50;99.90;;;;;;5035730;28;20191;-47
2021/01/25 00:31:11;;;;;;;3.10;2.80;;;1.40;99.90;;;;;;5018047;28;20185;-47
2021/01/25 00:33:37;;;;;;;3.53;3.03;;;1.40;99.90;;;;;;5015837;28;20232;-49
2021/01/25 00:36:02;;;;;;;3.10;2.80;;;1.30;99.90;;;;;;5030058;28;20294;-46
2021/01/25 00:38:28;;;;;;;3.50;3.03;;;1.20;99.90;;;;;;5023871;28;20299;-48
2021/01/25 00:40:54;;;;;;;3.20;2.90;;;1.10;99.90;;;;;;4998868;28;20263;-45
2021/01/25 00:43:19;;;;;;;3.30;2.87;;;1.00;99.90;;;;;;5024720;28;20651;-44
2021/01/25 00:45:45;;;;;;;4.67;3.07;;;0.90;99.90;;;;;;5035051;28;20218;-44
2021/01/25 00:48:10;;;;;;;3.33;2.67;;;0.90;99.90;;;;;;5026807;28;20215;-46
2021/01/25 00:50:36;;;;;;;3.07;2.77;;;0.80;99.90;;;;;;5015666;28;20247;-46
2021/01/25 00:53:02;;;;;;;4.13;3.00;;;0.70;99.90;;;;;;5020962;28;20194;-47
2021/01/25 00:55:27;;;;;;;3.43;3.13;;;0.70;99.90;;;;;;5034682;28;20290;-44
2021/01/25 00:57:52;;;;;;;3.20;2.90;;;0.70;99.90;;;;;;5033315;28;20180;-45
2021/01/25 01:00:19;;;;;;;5.40;3.07;;;0.80;99.90;;;;;;5032035;28;20259;-46
2021/01/25 01:02:45;;;;;;;3.40;3.10;;;0.80;99.90;;;;;;5023102;28;20200;-47
2021/01/25 01:05:10;;;;;;;4.23;3.23;;;0.80;99.90;;;;;;5013394;28;20522;-48
2021/01/25 01:07:36;;;;;;;3.30;3.00;;;0.80;99.90;;;;;;5020895;28;20656;-46
2021/01/25 01:10:04;;;;;;;3.67;3.13;;;0.70;99.90;;;;;;5032212;28;20266;-44
2021/01/25 01:12:29;;;;;;;4.13;3.40;;;0.80;99.90;;;;;;5033420;28;20219;-46
2021/01/25 01:14:55;;;;;;;3.40;3.00;;;0.80;99.90;;;;;;5034612;28;20482;-43
2021/01/25 01:17:21;;;;;;;3.63;3.03;;;0.70;99.90;;;;;;5034909;28;20513;-48
2021/01/25 01:19:46;;;;;;;5.77;3.30;;;0.60;99.90;;;;;;5033256;28;20224;-43
2021/01/25 01:22:12;;;;;;;4.93;3.20;;;0.50;99.90;;;;;;5024390;28;20180;-43
2021/01/25 01:24:37;;;;;;;4.83;3.00;;;0.40;99.90;;;;;;5028175;28;20699;-45
2021/01/25 01:27:04;;;;;;;3.37;3.00;;;0.30;99.90;;;;;;5033900;28;20537;-43
2021/01/25 01:29:29;;;;;;;4.63;3.23;;;0.40;99.90;;;;;;5034715;28;20208;-44
2021/01/25 01:31:55;;;;;;;3.00;2.70;;;0.30;99.90;;;;;;5034540;28;20426;-44
2021/01/25 01:34:20;;;;;;;3.43;2.90;;;0.30;99.90;;;;;;5033808;28;20200;-48
2021/01/25 01:36:46;;;;;;;4.13;3.20;;;0.40;99.90;;;;;;5035371;28;20241;-48
2021/01/25 01:39:11;;;;;;;3.80;3.10;;;0.50;99.90;;;;;;5032566;28;20272;-51
2021/01/25 01:41:38;;;;;;;3.87;3.23;;;0.60;99.90;;;;;;5032130;28;20188;-49
2021/01/25 01:44:07;;;;;;;3.67;3.17;;;0.70;99.90;;;;;;5033201;28;20278;-44
2021/01/25 01:46:34;;;;;;;3.70;2.70;;;0.90;99.90;;;;;;5033338;28;20430;-46
2021/01/25 01:49:01;;;;;;;3.53;2.80;;;1.10;99.90;;;;;;5025385;28;20450;-46
2021/01/25 01:51:27;;;;;;;3.73;3.17;;;1.30;99.90;;;;;;5031789;28;20445;-48
2021/01/25 01:53:54;;;;;;;4.47;2.90;;;1.40;99.90;;;;;;5033023;28;20438;-46
2021/01/25 01:56:19;;;;;;;4.67;3.00;;;1.40;99.90;;;;;;5033326;28;20415;-47
2021/01/25 01:58:45;;;;;;;5.63;3.30;;;1.50;99.90;;;;;;5015689;28;20472;-46
2021/01/25 02:01:12;;;;;;;3.20;2.90;;;1.40;99.90;;;;;;5031214;28;20200;-48
2021/01/25 02:03:37;;;;;;;3.90;3.17;;;1.50;99.90;;;;;;5027669;28;20619;-46
2021/01/25 02:06:05;;;;;;;4.47;3.50;;;1.50;99.90;;;;;;5031637;28;20945;-45
2021/01/25 02:08:33;;;;;;;3.90;3.13;;;1.50;99.90;;;;;;5032954;28;20699;-48
2021/01/25 02:10:58;;;;;;;3.23;2.63;;;1.50;99.90;;;;;;5034127;28;20411;-43
2021/01/25 02:13:25;;;;;;;3.20;2.90;;;1.50;99.90;;;;;;5015662;28;20572;-44
2021/01/25 02:15:51;;;;;;;3.83;3.20;;;1.50;99.90;;;;;;5033461;28;20200;-48
2021/01/25 02:18:17;;;;;;;3.83;3.20;;;1.40;99.90;;;;;;5034078;28;20913;-44
2021/01/25 02:20:45;;;;;;;4.73;3.03;;;1.40;99.90;;;;;;5033863;28;20962;-46
2021/01/25 02:23:10;;;;;;;4.30;3.33;;;1.30;99.90;;;;;;5033500;28;20261;-49
2021/01/25 02:26:19;;;;;;;3.77;3.30;;;1.20;99.90;;;;;;5033774;28;20887;-43
2021/01/25 02:28:45;;;;;;;3.10;2.57;;;1.00;99.90;;;;;;4986118;28;20676;-44
2021/01/25 02:31:11;;;;;;;3.73;2.93;;;1.00;99.90;;;;;;5015023;28;20443;-46
2021/01/25 02:33:44;;;;;;;4.33;3.10;;;1.00;99.90;;;;;;5017745;28;20419;-44
2021/01/25 02:36:10;;;;;;;4.10;2.80;;;1.00;99.90;;;;;;5036216;28;20453;-44
2021/01/25 02:38:40;;;;;;;4.53;3.20;;;1.10;99.90;;;;;;5037840;28;20471;-48
2021/01/25 02:41:07;;;;;;;3.50;3.20;;;1.20;99.90;;;;;;5037318;28;20390;-48
2021/01/25 02:43:33;;;;;;;3.60;2.80;;;1.20;99.90;;;;;;5017667;28;20422;-48
2021/01/25 02:45:59;;;;;;;3.70;3.20;;;1.30;99.90;;;;;;5017578;28;20399;-45
2021/01/25 02:48:25;;;;;;;3.30;2.80;;;1.30;99.90;;;;;;5035650;28;20838;-46
2021/01/25 02:50:51;;;;;;;3.33;2.80;;;1.20;99.90;;;;;;5022245;28;20919;-49
2021/01/25 02:53:16;;;;;;;3.90;3.17;;;1.10;99.90;;;;;;5019745;28;20505;-44
2021/01/25 02:55:42;;;;;;;4.00;2.90;;;1.10;99.90;;;;;;5017408;28;20967;-43
2021/01/25 02:58:08;;;;;;;3.80;3.07;;;1.20;99.90;;;;;;5021198;28;20204;-47
2021/01/25 03:00:33;;;;;;;4.00;3.13;;;1.20;99.90;;;;;;5037307;28;20172;-48
2021/01/25 03:03:01;;;;;;;3.07;2.70;;;1.30;99.90;;;;;;5036708;28;20417;-45
2021/01/25 03:05:29;;;;;;;3.50;3.20;;;1.30;99.90;;;;;;5037084;28;20276;-44
2021/01/25 03:07:55;;;;;;;4.23;3.10;;;1.30;99.90;;;;;;5035237;28;20929;-49
2021/01/25 03:10:20;;;;;;;3.37;2.80;;;1.20;99.90;;;;;;5017264;28;20435;-46
2021/01/25 03:12:46;;;;;;;4.37;3.40;;;1.00;99.90;;;;;;5017290;28;20462;-44
2021/01/25 03:15:13;;;;;;;4.37;3.37;;;1.10;99.90;;;;;;5016881;28;20587;-46
2021/01/25 03:17:39;;;;;;;4.27;2.90;;;1.20;99.90;;;;;;5033129;28;20250;-45
2021/01/25 03:20:05;;;;;;;4.03;2.93;;;1.30;99.90;;;;;;5037321;28;20458;-46
2021/01/25 03:22:31;;;;;;;3.93;3.00;;;1.20;99.90;;;;;;5021975;28;20532;-46
2021/01/25 03:24:56;;;;;;;4.53;3.17;;;1.10;99.90;;;;;;5020886;28;21041;-50
2021/01/25 03:27:22;;;;;;;3.93;3.37;;;1.10;99.90;;;;;;5035004;28;20679;-44
2021/01/25 03:29:47;;;;;;;3.57;2.97;;;1.00;99.90;;;;;;5036400;28;20191;-47
2021/01/25 03:32:13;;;;;;;5.23;2.87;;;0.90;99.90;;;;;;5034577;28;20184;-44
2021/01/25 03:34:38;;;;;;;6.10;2.97;;;1.00;99.90;;;;;;5019012;28;20215;-44
2021/01/25 03:37:04;;;;;;;3.90;3.23;;;0.90;99.90;;;;;;5035931;28;20187;-46
2021/01/25 03:39:30;;;;;;;3.73;3.07;;;0.80;99.90;;;;;;5036490;28;20204;-50
2021/01/25 03:41:55;;;;;;;3.23;2.93;;;0.80;99.90;;;;;;5016266;28;20557;-46
2021/01/25 03:44:21;;;;;;;5.13;3.03;;;0.80;99.90;;;;;;5035598;28;20176;-51
2021/01/25 03:46:47;;;;;;;5.50;3.10;;;0.80;99.90;;;;;;5037389;28;20270;-48
2021/01/25 03:49:16;;;;;;;3.87;3.47;;;0.90;99.90;;;;;;5037105;28;20201;-50
2021/01/25 03:51:41;;;;;;;3.63;3.13;;;0.80;99.90;;;;;;5040713;28;20172;-46
2021/01/25 03:54:09;;;;;;;3.80;3.10;;;0.80;99.90;;;;;;5035951;28;20519;-43
2021/01/25 03:56:35;;;;;;;3.83;3.40;;;0.90;99.90;;;;;;5036779;28;20176;-46
2021/01/25 03:59:00;;;;;;;4.33;3.20;;;0.80;99.90;;;;;;5036149;28;20449;-50
2021/01/25 04:01:26;;;;;;;3.90;2.93;;;0.90;99.90;;;;;;5036281;28;20575;-46
2021/01/25 04:03:52;;;;;;;5.03;3.27;;;0.90;99.90;;;;;;5038308;28;20180;-46
2021/01/25 04:06:17;;;;;;;3.57;3.27;;;0.80;99.90;;;;;;5019215;28;20442;-48
2021/01/25 04:08:43;;;;;;;3.53;3.03;;;0.70;99.90;;;;;;5016485;28;20587;-45
2021/01/25 04:11:09;;;;;;;5.07;3.00;;;0.70;99.90;;;;;;5033493;28;20275;-47
2021/01/25 04:13:34;;;;;;;5.50;3.47;;;0.60;99.90;;;;;;5023840;28;20518;-46
2021/01/25 04:16:00;;;;;;;3.47;3.17;;;0.60;99.90;;;;;;5036152;28;20984;-49
2021/01/25 04:18:25;;;;;;;4.23;2.90;;;0.60;99.90;;;;;;5037146;28;20204;-46
2021/01/25 04:20:51;;;;;;;3.43;2.90;;;0.60;99.90;;;;;;5036656;28;20215;-45
2021/01/25 04:23:17;;;;;;;3.57;3.00;;;0.60;99.90;;;;;;5027728;28;20283;-45
2021/01/25 04:25:42;;;;;;;4.27;3.37;;;0.60;99.90;;;;;;5017056;28;20180;-47
2021/01/25 04:28:08;;;;;;;3.63;3.10;;;0.40;99.90;;;;;;5024320;28;20276;-48
2021/01/25 04:30:33;;;;;;;4.60;2.97;;;0.20;99.90;;;;;;5039635;28;20180;-45
2021/01/25 04:32:59;;;;;;;4.03;3.33;;;-0.10;99.90;;;;;;5029558;28;20187;-48
2021/01/25 04:35:24;;;;;;;4.60;3.20;;;-0.20;99.90;;;;;;5017415;28;20659;-44
2021/01/25 04:37:50;;;;;;;4.43;3.40;;;-0.20;99.90;;;;;;5019299;28;20190;-48
2021/01/25 04:40:15;;;;;;;3.70;3.07;;;-0.20;99.90;;;;;;5038042;28;20176;-45
2021/01/25 04:42:41;;;;;;;4.60;3.20;;;-0.10;99.90;;;;;;5033787;28;20183;-44
2021/01/25 04:45:11;;;;;;;4.03;3.17;;;0.00;99.90;;;;;;5019600;28;20173;-47
2021/01/25 04:47:40;;;;;;;4.07;3.30;;;0.10;99.90;;;;;;5020946;28;20209;-43
2021/01/25 04:50:06;;;;;;;5.93;3.33;;;0.20;99.90;;;;;;5034236;28;20442;-45
2021/01/25 04:52:32;;;;;;;4.03;3.10;;;0.30;99.90;;;;;;5036649;28;20414;-48
2021/01/25 04:54:58;;;;;;;3.83;3.13;;;0.30;99.90;;;;;;5036893;28;20958;-47
2021/01/25 04:57:24;;;;;;;4.57;3.43;;;0.40;99.90;;;;;;5030480;28;20518;-44
2021/01/25 04:59:51;;;;;;;3.67;3.23;;;0.40;99.90;;;;;;5016271;28;20660;-46
2021/01/25 05:02:17;;;;;;;4.87;3.57;;;0.40;99.90;;;;;;5019270;28;20264;-45
2021/01/25 05:04:43;;;;;;;5.10;3.50;;;0.40;99.90;;;;;;5033140;28;20888;-44
2021/01/25 05:07:08;;;;;;;5.00;3.50;;;0.40;99.90;;;;;;5036809;28;20176;-48
2021/01/25 05:09:34;;;;;;;4.13;3.47;;;0.50;99.90;;;;;;5033856;28;20563;-46
2021/01/25 05:12:02;;;;;;;7.27;4.07;;;0.50;99.90;;;;;;5030549;28;20188;-49
2021/01/25 05:14:41;;;;;;;7.10;5.43;;;0.50;99.90;;;;;;5032440;28;20211;-46
2021/01/25 05:17:14;;;;;;;6.20;3.60;;;0.50;99.90;;;;;;5037609;28;20456;-47
2021/01/25 05:19:45;;;;;;;5.70;3.77;;;0.50;99.90;;;;;;5032680;28;20469;-49
2021/01/25 05:22:19;;;;;;;5.73;3.63;;;0.50;99.90;;;;;;5034720;28;20403;-43
2021/01/25 05:24:47;;;;;;;3.93;3.20;;;0.50;99.90;;;;;;5032813;28;20426;-52
2021/01/25 05:27:22;;;;;;;4.10;3.20;;;0.40;99.90;;;;;;5036832;28;20417;-49
2021/01/25 05:29:48;;;;;;;6.87;5.40;;;0.40;99.90;;;;;;5031056;28;20460;-45
2021/01/25 05:32:17;;;;;;;5.60;3.97;;;0.40;99.90;;;;;;5019760;28;20443;-43
2021/01/25 05:34:43;;;;;;;6.00;3.87;;;0.40;99.90;;;;;;5031875;28;20517;-46
2021/01/25 05:37:14;;;;;;;4.13;3.53;;;0.40;99.90;;;;;;5017434;28;20472;-44
2021/01/25 05:39:47;;;;;;;4.00;3.60;;;0.50;99.90;;;;;;5031240;28;20463;-46
2021/01/25 05:42:13;;;;;;;4.73;3.70;;;0.40;99.90;;;;;;5035029;28;20419;-46
2021/01/25 05:44:40;;;;;;;3.57;3.23;;;0.50;99.90;;;;;;5033686;28;20418;-44
2021/01/25 05:47:08;;;;;;;4.77;3.87;;;0.50;99.90;;;;;;5035666;28;20418;-48
2021/01/25 05:49:33;;;;;;;6.87;3.80;;;0.50;99.90;;;;;;5031595;28;20467;-47
2021/01/25 05:51:59;;;;;;;6.50;3.87;;;0.40;99.90;;;;;;5034230;28;20452;-46
2021/01/25 05:54:25;;;;;;;5.83;3.93;;;0.40;99.90;;;;;;5034269;28;20671;-47
2021/01/25 05:56:52;;;;;;;4.97;3.87;;;0.50;99.90;;;;;;5035930;28;20255;-50
2021/01/25 05:59:18;;;;;;;6.20;4.13;;;0.50;99.90;;;;;;5033011;28;20454;-47
2021/01/25 06:01:45;;;;;;;5.67;3.90;;;0.50;99.90;;;;;;5031102;28;20453;-45
2021/01/25 06:04:19;;;;;;;6.03;4.23;;;0.30;99.90;;;;;;5034735;28;20451;-44
2021/01/25 06:07:07;;;;;;;5.53;4.03;;;0.20;99.90;;;;;;5034424;28;20469;-48
2021/01/25 06:09:51;;;;;;;5.00;3.87;;;0.10;99.90;;;;;;5026564;28;20447;-45
2021/01/25 06:12:22;;;;;;;4.73;4.00;;;0.10;99.90;;;;;;5032636;28;20430;-45
2021/01/25 06:15:01;;;;;;;5.13;3.93;;;0.00;99.90;;;;;;5031987;28;20474;-45
2021/01/25 06:17:26;;;;;;;4.30;3.77;;;-0.10;99.90;;;;;;5020527;28;20409;-45
2021/01/25 06:19:52;;;;;;;4.93;3.90;;;-0.10;99.90;;;;;;5032585;28;20688;-45
2021/01/25 06:22:18;;;;;;;4.90;3.80;;;-0.10;99.90;;;;;;5035263;28;20202;-46
2021/01/25 06:24:44;;;;;;;5.57;4.10;;;0.00;99.90;;;;;;5033334;28;20183;-44
2021/01/25 06:27:14;;;;;;;4.87;4.07;;;0.00;99.90;;;;;;5027387;28;20186;-45
2021/01/25 06:29:40;;;;;;;4.90;4.17;;;0.10;99.90;;;;;;5023532;28;20462;-49
2021/01/25 06:32:09;;;;;;;5.27;4.40;;;0.10;99.90;;;;;;5033248;28;20453;-46
2021/01/25 06:34:37;;;;;;;6.17;4.37;;;0.20;99.90;;;;;;5015041;28;20458;-45
2021/01/25 06:37:02;;;;;;;7.27;4.20;;;0.20;99.90;;;;;;5034131;28;20460;-43
2021/01/25 06:39:31;;;;;;;6.70;5.30;;;0.20;99.90;;;;;;5031656;28;20490;-46
2021/01/25 06:42:06;;;;;;;7.97;6.20;;;0.20;99.90;;;;;;5028500;28;20202;-46
2021/01/25 06:44:33;;;;;;;7.87;6.23;;;0.20;99.90;;;;;;5033868;28;20445;-45
2021/01/25 06:47:01;;;;;;;9.80;6.63;;;0.20;99.90;;;;;;5035770;28;20441;-46
2021/01/25 06:49:29;;;;;;;7.07;5.13;;;0.20;99.90;;;;;;5030669;28;20446;-46
2021/01/25 06:51:56;;;;;;;6.87;5.63;;;0.20;99.90;;;;;;5024599;28;20764;-44
2021/01/25 06:54:24;;;;;;;7.37;5.27;;;0.20;99.90;;;;;;5017097;28;20463;-44
2021/01/25 06:56:54;;;;;;;7.10;5.37;;;0.20;99.90;;;;;;5018776;28;20451;-46
2021/01/25 06:59:24;;;;;;;9.60;6.77;;;0.20;99.90;;;;;;5032131;28;20445;-44
2021/01/25 07:01:53;;;;;;;8.70;7.13;;;0.20;99.90;;;;;;5032631;28;20530;-48
2021/01/25 07:04:21;;;;;;;10.33;5.53;;;0.10;99.90;;;;;;5026580;28;20419;-46
2021/01/25 07:06:53;;;;;;;7.90;5.23;;;0.10;99.90;;;;;;5023516;28;20427;-47
2021/01/25 07:09:30;;;;;;;7.07;5.10;;;0.10;99.90;;;;;;5023832;28;20464;-45
2021/01/25 07:12:01;;;;;;;6.07;4.50;;;0.10;99.90;;;;;;5024021;28;20438;-46
2021/01/25 07:14:28;;;;;;;6.27;4.93;;;0.20;99.90;;;;;;5018415;28;21037;-44
2021/01/25 07:16:56;;;;;;;6.30;4.50;;;0.30;99.90;;;;;;5032524;28;20422;-48
2021/01/25 07:19:23;;;;;;;7.23;4.37;;;0.40;99.90;;;;;;5039026;28;20501;-45
2021/01/25 07:21:50;;;;;;;5.07;4.40;;;0.40;99.90;;;;;;5036909;28;20422;-46
2021/01/25 07:24:22;;;;;;;6.77;4.43;;;0.50;99.90;;;;;;5036050;28;20430;-46
2021/01/25 07:26:55;;;;;;;6.17;5.20;;;0.60;99.90;;;;;;5027802;28;20484;-46
2021/01/25 07:29:22;;;;;;;8.60;5.60;;;0.70;99.90;;;;;;5034974;28;20451;-44
2021/01/25 07:31:49;;;;;;;5.50;4.17;;;0.50;99.90;;;;;;5035868;28;20917;-46
2021/01/25 07:34:15;;;;;;;6.23;4.37;;;0.40;99.90;;;;;;5037814;28;20914;-45
2021/01/25 07:36:41;;;;;;;7.20;4.73;;;0.40;99.90;;;;;;5031628;28;20451;-47
2021/01/25 07:39:12;;;;;;;6.60;4.57;;;0.50;99.90;;;;;;5030024;28;20505;-48
2021/01/25 07:41:38;;;;;;;5.27;4.30;;;0.70;99.90;;;;;;5032136;28;20509;-47
2021/01/25 07:44:06;;;;;;;6.73;3.80;;;1.00;99.90;;;;;;5036435;28;20415;-49
2021/01/25 07:46:32;;;;;;;4.00;3.60;;;1.90;99.90;;;;;;5036653;28;20418;-48
2021/01/25 07:48:58;;;;;;;4.70;3.60;;;3.80;99.90;;;;;;5035525;28;20445;-52
2021/01/25 07:51:25;;;;;;;3.80;3.40;;;6.30;99.90;;;;;;5031660;28;20185;-49
2021/01/25 07:53:52;;;;;;;4.47;3.50;;;9.10;99.90;;;;;;5031892;28;20176;-48
2021/01/25 07:56:19;;;;;;;4.57;3.40;;;11.30;94.80;;;;;;5032255;28;20559;-50
2021/01/25 07:58:45;;;;;;;4.00;3.60;;;12.20;91.70;;;;;;5032583;28;20192;-49
2021/01/25 08:01:21;;;;;;;4.50;3.80;;;12.10;90.60;;;;;;5035689;28;20222;-49
2021/01/25 08:03:50;;;;;;;4.43;3.50;;;11.60;90.20;;;;;;5036428;28;20240;-47
2021/01/25 08:06:16;;;;;;;6.23;4.50;;;10.90;89.50;;;;;;5017545;28;20208;-47
2021/01/25 08:08:46;;;;;;;5.47;4.20;;;10.90;90.10;;;;;;5027579;28;20235;-47
2021/01/25 08:11:11;;;;;;;6.57;5.20;;;11.70;90.20;;;;;;5035067;28;20226;-49
2021/01/25 08:13:56;;;;;;;6.20;5.50;;;12.40;87.60;;;;;;5025007;28;20188;-46
2021/01/25 08:16:25;;;;;;;7.53;5.70;;;12.80;85.60;;;;;;5024876;28;20186;-49
2021/01/25 08:19:00;;;;;;;7.47;5.53;;;12.60;84.80;;;;;;5035159;28;20587;-50
2021/01/25 08:21:32;;;;;;;6.00;5.07;;;12.30;84.40;;;;;;5027753;28;20179;-47
2021/01/25 08:24:01;;;;;;;6.07;4.80;;;11.90;84.40;;;;;;5015756;28;20172;-46
2021/01/25 08:26:28;;;;;;;6.03;4.80;;;11.50;85.30;;;;;;5021225;28;20736;-52
2021/01/25 08:28:59;;;;;;;5.90;4.70;;;11.30;86.70;;;;;;5033561;28;20556;-49
2021/01/25 08:31:42;;;;;;;5.67;4.70;;;12.40;87.00;;;;;;5034364;28;20172;-46
2021/01/25 08:34:19;;;;;;;5.27;4.53;;;15.00;83.40;;;;;;5039409;28;20204;-47
2021/01/25 08:36:57;;;;;;;6.00;4.53;;;18.10;76.10;;;;;;5038002;28;20644;-45
2021/01/25 08:39:34;;;;;;;5.00;4.50;;;21.10;69.00;;;;;;5025609;28;20261;-49
2021/01/25 08:42:03;;;;;;;5.43;4.82;;;23.60;61.00;;;;;;5026626;28;20207;-47
2021/01/25 08:44:29;;;;;;;8.00;4.90;;;25.40;54.10;;;;;;5020489;28;20594;-46
2021/01/25 08:47:06;;;;;;;5.30;4.20;;;27.00;50.10;;;;;;5021284;28;20180;-48
2021/01/25 08:49:35;;;;;;;4.80;4.10;;;28.60;45.60;;;;;;5028087;28;20204;-50
2021/01/25 08:52:08;;;;;;;4.00;3.60;;;29.80;43.00;;;;;;5032122;28;20187;-48
2021/01/25 08:54:37;;;;;;;4.32;3.92;;;29.90;40.80;;;;;;5031969;28;20214;-50
2021/01/25 08:57:15;;;;;;;3.80;3.50;;;28.90;40.10;;;;;;5033797;28;20521;-47
2021/01/25 08:59:43;;;;;;;4.63;4.03;;;27.10;40.60;;;;;;5029229;28;20231;-45
2021/01/25 09:02:22;;;;;;;4.35;3.95;;;25.30;40.90;;;;;;5020844;28;20623;-51
2021/01/25 09:04:52;;;;;;;5.50;5.00;;;23.10;41.70;;;;;;5027948;28;20207;-50
2021/01/25 09:07:21;;;;;;;5.30;4.77;;;21.10;43.60;;;;;;5014778;28;20636;-45
2021/01/25 09:09:47;;;;;;;5.57;4.80;;;19.10;44.90;;;;;;5018586;28;20694;-47
2021/01/25 09:12:15;;;;;;;5.90;5.03;;;17.00;46.80;;;;;;5033033;28;20168;-45
2021/01/25 09:14:41;;;;;;;4.70;4.20;;;15.40;49.70;;;;;;5027524;28;20200;-49
2021/01/25 09:17:08;;;;;;;4.63;4.23;;;14.40;51.90;;;;;;5013611;28;20217;-47
2021/01/25 09:19:34;;;;;;;5.67;4.70;;;13.80;53.10;;;;;;5016207;28;20211;-46
2021/01/25 09:21:59;;;;;;;5.43;4.77;;;13.60;54.30;;;;;;5033912;28;20185;-45
2021/01/25 09:24:25;;;;;;;6.47;4.70;;;13.60;55.10;;;;;;5032469;28;20655;-47
2021/01/25 09:26:50;;;;;;;5.43;4.53;;;13.60;55.20;;;;;;5023222;28;20180;-46
2021/01/25 09:29:16;;;;;;;6.13;5.00;;;13.70;56.00;;;;;;5029059;28;20228;-47
2021/01/25 09:31:41;;;;;;;5.37;4.77;;;14.40;56.80;;;;;;5033423;28;20192;-49
2021/01/25 09:34:07;;;;;;;4.93;4.43;;;15.70;56.30;;;;;;5032089;28;20186;-46
2021/01/25 09:36:33;;;;;;;4.67;4.27;;;17.10;53.40;;;;;;5024231;28;20185;-45
2021/01/25 09:38:59;;;;;;;5.10;4.37;;;18.20;52.50;;;;;;5015923;28;20678;-49
2021/01/25 09:41:24;;;;;;;4.83;4.33;;;18.80;51.00;;;;;;5018920;28;20182;-47
2021/01/25 09:43:50;;;;;;;4.83;4.33;;;18.90;50.60;;;;;;5033767;28;20174;-45
2021/01/25 09:46:15;;;;;;;5.30;3.93;;;18.60;49.90;;;;;;5028388;28;20182;-47
2021/01/25 09:48:41;;;;;;;5.57;5.03;;;18.10;50.40;;;;;;5011431;28;20239;-45
2021/01/25 09:51:06;;;;;;;4.80;4.30;;;17.70;50.80;;;;;;5013002;28;20173;-49
2021/01/25 09:53:32;;;;;;;6.43;4.90;;;17.10;51.30;;;;;;5031096;28;20206;-48
2021/01/25 09:55:58;;;;;;;5.57;4.77;;;16.40;51.60;;;;;;5031040;28;20206;-47
2021/01/25 09:58:24;;;;;;;4.93;4.40;;;15.50;52.30;;;;;;5031478;28;20251;-49
2021/01/25 10:00:51;;;;;;;4.87;4.37;;;14.60;53.60;;;;;;5031068;28;20202;-46
2021/01/25 10:03:18;;;;;;;6.80;4.80;;;13.60;54.90;;;;;;5031994;28;20586;-46
2021/01/25 10:05:44;;;;;;;5.37;4.70;;;12.80;56.20;;;;;;5029070;28;20188;-47
2021/01/25 10:08:10;;;;;;;5.80;4.30;;;12.10;57.40;;;;;;5032847;28;20203;-46
2021/01/25 10:10:35;;;;;;;8.23;6.30;;;11.50;58.40;;;;;;5022394;28;20181;-45
2021/01/25 10:13:01;;;;;;;18.20;10.80;;;10.70;59.30;;;;;;5017566;28;20514;-46
2021/01/25 10:15:27;;;;;;;6.13;5.40;;;10.00;60.40;;;;;;5023099;28;20235;-48
2021/01/25 10:17:52;;;;;;;6.00;5.00;;;9.60;63.40;;;;;;5033168;28;20192;-45
2021/01/25 10:20:18;;;;;;;6.40;5.50;;;9.00;64.60;;;;;;5024048;28;20506;-47
2021/01/25 10:22:44;;;;;;;6.30;5.47;;;8.60;66.70;;;;;;5013825;28;20175;-47
2021/01/25 10:25:10;;;;;;;6.87;5.60;;;8.40;68.00;;;;;;5021001;28;20182;-46
2021/01/25 10:27:37;;;;;;;7.33;5.40;;;8.10;68.80;;;;;;5033527;28;20266;-49
2021/01/25 10:30:05;;;;;;;7.27;5.70;;;7.90;69.50;;;;;;5025958;28;20216;-46
2021/01/25 10:32:30;;;;;;;7.00;5.20;;;7.80;70.80;;;;;;5013316;28;20633;-45
2021/01/25 10:34:58;;;;;;;6.33;5.50;;;7.60;72.70;;;;;;5018275;28;20191;-47
2021/01/25 10:37:24;;;;;;;7.47;5.37;;;7.30;73.70;;;;;;5029776;28;20187;-46
2021/01/25 10:39:49;;;;;;;7.17;5.33;;;7.20;74.80;;;;;;5031837;28;20611;-48
2021/01/25 10:42:15;;;;;;;7.90;5.63;;;7.10;75.50;;;;;;5016142;28;20180;-49
2021/01/25 10:44:40;;;;;;;8.23;5.20;;;7.30;75.50;;;;;;5013415;28;20173;-47
2021/01/25 10:47:06;;;;;;;6.80;5.43;;;7.40;75.70;;;;;;5032694;28;20214;-49
2021/01/25 10:49:32;;;;;;;7.50;5.63;;;7.40;76.00;;;;;;5033331;28;20195;-47
2021/01/25 10:51:57;;;;;;;6.77;5.60;;;7.00;77.90;;;;;;5029316;28;20638;-46
2021/01/25 10:54:23;;;;;;;7.30;5.83;;;7.00;79.20;;;;;;5030779;28;20202;-45
2021/01/25 10:56:49;;;;;;;5.93;5.17;;;7.40;80.10;;;;;;5035635;28;20168;-48
2021/01/25 10:59:15;;;;;;;6.77;5.37;;;8.00;79.60;;;;;;5036415;28;20199;-49
2021/01/25 11:01:41;;;;;;;6.27;5.07;;;8.60;78.50;;;;;;5033801;28;20179;-47
2021/01/25 11:04:07;;;;;;;5.90;5.07;;;9.00;76.30;;;;;;5034384;28;20248;-48
2021/01/25 11:06:32;;;;;;;8.17;5.20;;;9.50;75.90;;;;;;5028355;28;20184;-46
2021/01/25 11:08:58;;;;;;;5.83;4.83;;;9.60;72.20;;;;;;5031831;28;20715;-46
2021/01/25 11:11:23;;;;;;;5.80;5.07;;;9.60;73.20;;;;;;5036552;28;20529;-50
2021/01/25 11:13:49;;;;;;;6.43;5.23;;;9.70;72.50;;;;;;5034303;28;20179;-46
2021/01/25 11:16:14;;;;;;;6.97;4.40;;;9.60;71.30;;;;;;5035574;28;20663;-49
2021/01/25 11:18:40;;;;;;;5.00;4.50;;;9.40;71.40;;;;;;5029129;28;20200;-49
2021/01/25 11:21:06;;;;;;;6.10;4.83;;;9.80;71.50;;;;;;5017340;28;20180;-45
2021/01/25 11:23:31;;;;;;;5.03;4.37;;;10.50;70.80;;;;;;5031998;28;20179;-50
2021/01/25 11:25:57;;;;;;;5.40;4.67;;;11.00;70.00;;;;;;5036038;28;20184;-46
2021/01/25 11:28:22;;;;;;;5.80;4.90;;;11.30;69.20;;;;;;5034840;28;20199;-47
2021/01/25 11:30:48;;;;;;;5.37;4.57;;;11.50;66.90;;;;;;5022191;28;20188;-46
2021/01/25 11:33:14;;;;;;;5.00;4.50;;;11.80;68.40;;;;;;5033911;28;20191;-47
2021/01/25 11:35:41;;;;;;;4.53;4.13;;;12.50;67.70;;;;;;5036302;28;20227;-48
2021/01/25 11:38:07;;;;;;;5.10;4.03;;;13.80;65.10;;;;;;5017560;28;20196;-54
2021/01/25 11:40:33;;;;;;;4.10;3.70;;;15.80;62.10;;;;;;5032062;28;20173;-52
2021/01/25 11:42:58;;;;;;;3.33;3.03;;;18.30;59.00;;;;;;5034466;28;20176;-47
2021/01/25 11:45:24;;;;;;;5.88;3.42;;;21.00;55.20;;;;;;5034869;28;20178;-46
2021/01/25 11:47:49;;;;;;;5.68;4.25;;;23.20;50.20;;;;;;5035344;28;20343;-51
2021/01/25 11:50:15;;;;;;;5.30;4.28;;;22.90;46.20;;;;;;5032815;28;20536;-47
2021/01/25 11:52:41;;;;;;;4.97;4.47;;;21.90;47.60;;;;;;5033527;28;20575;-48
2021/01/25 11:55:07;;;;;;;5.15;4.65;;;21.00;47.20;;;;;;5019663;28;20262;-46
2021/01/25 11:57:33;;;;;;;6.30;5.03;;;19.70;48.10;;;;;;5014766;28;20204;-48
2021/01/25 11:59:58;;;;;;;7.50;5.27;;;17.50;49.80;;;;;;5031174;28;20200;-44
2021/01/25 12:02:24;;;;;;;6.17;5.00;;;15.40;52.30;;;;;;5035307;28;20197;-49
2021/01/25 12:04:51;;;;;;;5.90;5.30;;;14.00;55.40;;;;;;5023733;28;20292;-47
2021/01/25 12:07:21;;;;;;;6.87;5.17;;;13.30;55.90;;;;;;5018925;28;20168;-50
2021/01/25 12:09:46;;;;;;;6.47;5.43;;;12.70;56.30;;;;;;5028508;28;20195;-48
2021/01/25 12:12:12;;;;;;;5.60;5.10;;;12.30;57.10;;;;;;5034596;28;20189;-46
2021/01/25 12:14:38;;;;;;;6.67;5.00;;;12.00;58.20;;;;;;5031098;28;20204;-50
2021/01/25 12:17:03;;;;;;;6.53;5.10;;;11.90;58.40;;;;;;5023747;28;20350;-49
2021/01/25 12:19:29;;;;;;;13.50;9.77;;;11.60;59.30;;;;;;5023486;28;20195;-46
2021/01/25 12:21:55;;;;;;;5.73;5.13;;;11.00;62.30;;;;;;5035169;28;20497;-45
2021/01/25 12:24:21;;;;;;;6.53;5.23;;;10.80;61.30;;;;;;5032014;28;20230;-51
2021/01/25 12:26:46;;;;;;;5.43;4.77;;;10.60;62.00;;;;;;5035852;28;20172;-52
2021/01/25 12:29:12;;;;;;;6.90;5.30;;;10.70;63.90;;;;;;5031267;28;20200;-46
2021/01/25 12:31:37;;;;;;;6.23;4.87;;;10.90;62.70;;;;;;5036022;28;20271;-55
2021/01/25 12:34:03;;;;;;;5.63;4.93;;;10.60;62.10;;;;;;5021677;28;20635;-45
2021/01/25 12:36:29;;;;;;;6.47;5.47;;;10.20;64.10;;;;;;5033006;28;20614;-45
2021/01/25 12:38:56;;;;;;;7.37;5.87;;;9.90;64.20;;;;;;5035339;28;20207;-53
2021/01/25 12:41:22;;;;;;;7.20;5.10;;;9.40;64.10;;;;;;5035420;28;20207;-50
2021/01/25 12:43:47;;;;;;;8.17;5.60;;;8.80;65.40;;;;;;5028499;28;20211;-47
2021/01/25 12:46:13;;;;;;;7.17;5.57;;;8.20;67.80;;;;;;5035219;28;20176;-45
2021/01/25 12:48:38;;;;;;;8.20;5.70;;;7.60;69.70;;;;;;5019900;28;20216;-50
2021/01/25 12:51:04;;;;;;;6.85;5.82;;;7.00;71.00;;;;;;5027788;28;20567;-47
2021/01/25 12:53:30;;;;;;;7.03;5.63;;;6.60;73.80;;;;;;5025230;28;20199;-45